sensor_id;sensor_type;location;lat;lon;timestamp;P1;durP1;ratioP1;P2;durP2;ratioP2
76121;SDS011;64853;53.200;6.080;2022-11-11T00:00:48;0.80;;;0.40;;
76121;SDS011;64853;53.200;6.080;2022-11-11T00:03:14;0.93;;;0.25;;
76121;SDS011;64853;53.200;6.080;2022-11-11T00:05:41;0.65;;;0.30;;
76121;SDS011;64853;53.200;6.080;2022-11-11T00:08:07;0.68;;;0.30;;
76121;SDS011;64853;53.200;6.080;2022-11-11T00:10:34;0.57;;;0.30;;
76121;SDS011;64853;53.200;6.080;2022-11-11T00:13:02;1.63;;;0.32;;
76121;SDS011;64853;53.200;6.080;2022-11-11T00:15:30;0.65;;;0.40;;
76121;SDS011;64853;53.200;6.080;2022-11-11T00:17:57;0.82;;;0.40;;
76121;SDS011;64853;53.200;6.080;2022-11-11T00:20:41;0.55;;;0.30;;
76121;SDS011;64853;53.200;6.080;2022-11-11T00:23:26;0.75;;;0.50;;
76121;SDS011;64853;53.200;6.080;2022-11-11T00:26:11;0.63;;;0.30;;
76121;SDS011;64853;53.200;6.080;2022-11-11T00:28:40;0.70;;;0.30;;
76121;SDS011;64853;53.200;6.080;2022-11-11T00:31:08;0.95;;;0.20;;
76121;SDS011;64853;53.200;6.080;2022-11-11T00:33:36;0.47;;;0.28;;
76121;SDS011;64853;53.200;6.080;2022-11-11T00:36:03;0.88;;;0.40;;
76121;SDS011;64853;53.200;6.080;2022-11-11T00:38:29;0.77;;;0.40;;
76121;SDS011;64853;53.200;6.080;2022-11-11T00:41:12;0.85;;;0.35;;
76121;SDS011;64853;53.200;6.080;2022-11-11T00:43:41;0.50;;;0.30;;
76121;SDS011;64853;53.200;6.080;2022-11-11T00:46:08;0.77;;;0.30;;
76121;SDS011;64853;53.200;6.080;2022-11-11T00:48:52;0.63;;;0.30;;
76121;SDS011;64853;53.200;6.080;2022-11-11T00:51:36;0.40;;;0.30;;
76121;SDS011;64853;53.200;6.080;2022-11-11T00:54:02;0.68;;;0.35;;
76121;SDS011;64853;53.200;6.080;2022-11-11T00:56:29;0.70;;;0.68;;
76121;SDS011;64853;53.200;6.080;2022-11-11T00:58:57;0.52;;;0.30;;
76121;SDS011;64853;53.200;6.080;2022-11-11T01:01:23;0.90;;;0.52;;
76121;SDS011;64853;53.200;6.080;2022-11-11T01:03:50;0.80;;;0.40;;
76121;SDS011;64853;53.200;6.080;2022-11-11T01:06:16;0.93;;;0.30;;
76121;SDS011;64853;53.200;6.080;2022-11-11T01:08:43;1.88;;;0.40;;
76121;SDS011;64853;53.200;6.080;2022-11-11T01:11:11;0.88;;;0.35;;
76121;SDS011;64853;53.200;6.080;2022-11-11T01:13:38;0.68;;;0.60;;
76121;SDS011;64853;53.200;6.080;2022-11-11T01:16:07;0.75;;;0.30;;
76121;SDS011;64853;53.200;6.080;2022-11-11T01:18:35;0.93;;;0.50;;
76121;SDS011;64853;53.200;6.080;2022-11-11T01:21:03;0.70;;;0.45;;
76121;SDS011;64853;53.200;6.080;2022-11-11T01:23:31;0.95;;;0.30;;
76121;SDS011;64853;53.200;6.080;2022-11-11T01:26:00;0.30;;;0.30;;
76121;SDS011;64853;53.200;6.080;2022-11-11T01:28:28;1.23;;;0.30;;
76121;SDS011;64853;53.200;6.080;2022-11-11T01:30:58;1.00;;;0.30;;
76121;SDS011;64853;53.200;6.080;2022-11-11T01:33:27;1.10;;;0.40;;
76121;SDS011;64853;53.200;6.080;2022-11-11T01:35:53;2.75;;;0.60;;
76121;SDS011;64853;53.200;6.080;2022-11-11T01:38:20;1.00;;;0.50;;
76121;SDS011;64853;53.200;6.080;2022-11-11T01:40:47;0.30;;;0.22;;
76121;SDS011;64853;53.200;6.080;2022-11-11T01:43:16;0.63;;;0.40;;
76121;SDS011;64853;53.200;6.080;2022-11-11T01:45:50;1.90;;;0.35;;
76121;SDS011;64853;53.200;6.080;2022-11-11T01:48:21;0.40;;;0.40;;
76121;SDS011;64853;53.200;6.080;2022-11-11T01:51:11;0.45;;;0.35;;
76121;SDS011;64853;53.200;6.080;2022-11-11T01:53:44;0.75;;;0.30;;
76121;SDS011;64853;53.200;6.080;2022-11-11T01:56:13;1.00;;;0.35;;
76121;SDS011;64853;53.200;6.080;2022-11-11T01:58:40;0.77;;;0.28;;
76121;SDS011;64853;53.200;6.080;2022-11-11T02:01:07;0.63;;;0.35;;
76121;SDS011;64853;53.200;6.080;2022-11-11T02:03:34;0.47;;;0.32;;
76121;SDS011;64853;53.200;6.080;2022-11-11T02:06:05;0.75;;;0.22;;
76121;SDS011;64853;53.200;6.080;2022-11-11T02:08:32;0.50;;;0.38;;
76121;SDS011;64853;53.200;6.080;2022-11-11T02:11:03;0.43;;;0.40;;
76121;SDS011;64853;53.200;6.080;2022-11-11T02:13:36;0.85;;;0.50;;
76121;SDS011;64853;53.200;6.080;2022-11-11T02:16:21;1.35;;;0.35;;
76121;SDS011;64853;53.200;6.080;2022-11-11T02:18:48;0.93;;;0.40;;
76121;SDS011;64853;53.200;6.080;2022-11-11T02:21:16;1.60;;;0.50;;
76121;SDS011;64853;53.200;6.080;2022-11-11T02:23:53;0.55;;;0.30;;
76121;SDS011;64853;53.200;6.080;2022-11-11T02:26:26;1.13;;;0.45;;
76121;SDS011;64853;53.200;6.080;2022-11-11T02:28:55;0.93;;;0.40;;
76121;SDS011;64853;53.200;6.080;2022-11-11T02:31:24;1.23;;;0.40;;
76121;SDS011;64853;53.200;6.080;2022-11-11T02:33:52;0.63;;;0.40;;
76121;SDS011;64853;53.200;6.080;2022-11-11T02:36:19;0.73;;;0.50;;
76121;SDS011;64853;53.200;6.080;2022-11-11T02:38:46;1.05;;;0.30;;
76121;SDS011;64853;53.200;6.080;2022-11-11T02:41:15;1.58;;;0.40;;
76121;SDS011;64853;53.200;6.080;2022-11-11T02:43:59;0.40;;;0.30;;
76121;SDS011;64853;53.200;6.080;2022-11-11T02:46:25;0.90;;;0.50;;
76121;SDS011;64853;53.200;6.080;2022-11-11T02:48:51;0.45;;;0.35;;
76121;SDS011;64853;53.200;6.080;2022-11-11T02:51:18;1.17;;;0.45;;
76121;SDS011;64853;53.200;6.080;2022-11-11T02:53:45;0.55;;;0.40;;
76121;SDS011;64853;53.200;6.080;2022-11-11T02:56:11;0.70;;;0.45;;
76121;SDS011;64853;53.200;6.080;2022-11-11T02:58:59;1.27;;;0.50;;
76121;SDS011;64853;53.200;6.080;2022-11-11T03:01:25;1.27;;;0.52;;
76121;SDS011;64853;53.200;6.080;2022-11-11T03:03:52;0.68;;;0.40;;
76121;SDS011;64853;53.200;6.080;2022-11-11T03:06:18;1.00;;;0.55;;
76121;SDS011;64853;53.200;6.080;2022-11-11T03:08:44;0.85;;;0.40;;
76121;SDS011;64853;53.200;6.080;2022-11-11T03:11:11;0.45;;;0.40;;
76121;SDS011;64853;53.200;6.080;2022-11-11T03:13:37;0.77;;;0.50;;
76121;SDS011;64853;53.200;6.080;2022-11-11T03:16:05;0.57;;;0.50;;
76121;SDS011;64853;53.200;6.080;2022-11-11T03:18:52;0.68;;;0.50;;
76121;SDS011;64853;53.200;6.080;2022-11-11T03:21:17;0.80;;;0.50;;
76121;SDS011;64853;53.200;6.080;2022-11-11T03:23:44;1.27;;;0.57;;
76121;SDS011;64853;53.200;6.080;2022-11-11T03:26:10;0.60;;;0.40;;
76121;SDS011;64853;53.200;6.080;2022-11-11T03:28:37;1.73;;;0.50;;
76121;SDS011;64853;53.200;6.080;2022-11-11T03:31:03;0.80;;;0.40;;
76121;SDS011;64853;53.200;6.080;2022-11-11T03:33:31;0.60;;;0.47;;
76121;SDS011;64853;53.200;6.080;2022-11-11T03:35:57;0.82;;;0.50;;
76121;SDS011;64853;53.200;6.080;2022-11-11T03:38:24;1.38;;;0.70;;
76121;SDS011;64853;53.200;6.080;2022-11-11T03:40:50;1.00;;;0.52;;
76121;SDS011;64853;53.200;6.080;2022-11-11T03:43:18;0.73;;;0.50;;
76121;SDS011;64853;53.200;6.080;2022-11-11T03:45:46;0.65;;;0.60;;
76121;SDS011;64853;53.200;6.080;2022-11-11T03:48:13;1.00;;;0.60;;
76121;SDS011;64853;53.200;6.080;2022-11-11T03:50:41;0.60;;;0.60;;
76121;SDS011;64853;53.200;6.080;2022-11-11T03:53:08;0.88;;;0.57;;
76121;SDS011;64853;53.200;6.080;2022-11-11T03:55:35;1.50;;;0.70;;
76121;SDS011;64853;53.200;6.080;2022-11-11T03:58:02;1.00;;;0.60;;
76121;SDS011;64853;53.200;6.080;2022-11-11T04:00:28;0.95;;;0.60;;
76121;SDS011;64853;53.200;6.080;2022-11-11T04:03:00;0.98;;;0.52;;
76121;SDS011;64853;53.200;6.080;2022-11-11T04:05:45;1.38;;;0.95;;
76121;SDS011;64853;53.200;6.080;2022-11-11T04:08:40;1.25;;;0.60;;
76121;SDS011;64853;53.200;6.080;2022-11-11T04:11:25;0.70;;;0.50;;
76121;SDS011;64853;53.200;6.080;2022-11-11T04:13:53;0.85;;;0.70;;
76121;SDS011;64853;53.200;6.080;2022-11-11T04:16:57;0.93;;;0.68;;
76121;SDS011;64853;53.200;6.080;2022-11-11T04:19:24;1.70;;;0.70;;
76121;SDS011;64853;53.200;6.080;2022-11-11T04:22:09;0.93;;;0.55;;
76121;SDS011;64853;53.200;6.080;2022-11-11T04:24:36;1.23;;;0.73;;
76121;SDS011;64853;53.200;6.080;2022-11-11T04:27:20;1.15;;;0.75;;
76121;SDS011;64853;53.200;6.080;2022-11-11T04:29:46;0.60;;;0.50;;
76121;SDS011;64853;53.200;6.080;2022-11-11T04:32:13;0.80;;;0.57;;
76121;SDS011;64853;53.200;6.080;2022-11-11T04:34:58;1.23;;;0.68;;
76121;SDS011;64853;53.200;6.080;2022-11-11T04:37:29;1.23;;;0.85;;
76121;SDS011;64853;53.200;6.080;2022-11-11T04:39:57;1.25;;;0.82;;
76121;SDS011;64853;53.200;6.080;2022-11-11T04:42:41;1.20;;;0.70;;
76121;SDS011;64853;53.200;6.080;2022-11-11T04:45:08;0.88;;;0.50;;
76121;SDS011;64853;53.200;6.080;2022-11-11T04:48:03;1.23;;;0.82;;
76121;SDS011;64853;53.200;6.080;2022-11-11T04:50:31;1.05;;;0.60;;
76121;SDS011;64853;53.200;6.080;2022-11-11T04:53:00;1.40;;;0.80;;
76121;SDS011;64853;53.200;6.080;2022-11-11T04:55:28;0.90;;;0.63;;
76121;SDS011;64853;53.200;6.080;2022-11-11T04:58:13;1.00;;;0.50;;
76121;SDS011;64853;53.200;6.080;2022-11-11T05:00:40;0.82;;;0.50;;
76121;SDS011;64853;53.200;6.080;2022-11-11T05:03:09;0.85;;;0.63;;
76121;SDS011;64853;53.200;6.080;2022-11-11T05:05:46;1.65;;;0.70;;
76121;SDS011;64853;53.200;6.080;2022-11-11T05:08:33;0.85;;;0.65;;
76121;SDS011;64853;53.200;6.080;2022-11-11T05:13:45;1.63;;;0.75;;
76121;SDS011;64853;53.200;6.080;2022-11-11T05:16:30;1.23;;;0.80;;
76121;SDS011;64853;53.200;6.080;2022-11-11T05:19:19;1.95;;;0.70;;
76121;SDS011;64853;53.200;6.080;2022-11-11T05:22:05;1.25;;;0.80;;
76121;SDS011;64853;53.200;6.080;2022-11-11T05:24:36;1.00;;;0.80;;
76121;SDS011;64853;53.200;6.080;2022-11-11T05:27:20;0.90;;;0.70;;
76121;SDS011;64853;53.200;6.080;2022-11-11T05:29:47;2.13;;;0.95;;
76121;SDS011;64853;53.200;6.080;2022-11-11T05:32:16;1.83;;;1.00;;
76121;SDS011;64853;53.200;6.080;2022-11-11T05:34:44;1.30;;;0.80;;
76121;SDS011;64853;53.200;6.080;2022-11-11T05:37:11;2.13;;;1.00;;
76121;SDS011;64853;53.200;6.080;2022-11-11T05:39:39;1.17;;;0.75;;
76121;SDS011;64853;53.200;6.080;2022-11-11T05:42:05;0.98;;;0.90;;
76121;SDS011;64853;53.200;6.080;2022-11-11T05:44:32;1.58;;;0.93;;
76121;SDS011;64853;53.200;6.080;2022-11-11T05:46:59;1.13;;;0.77;;
76121;SDS011;64853;53.200;6.080;2022-11-11T05:49:25;1.27;;;0.60;;
76121;SDS011;64853;53.200;6.080;2022-11-11T05:51:52;2.90;;;0.80;;
76121;SDS011;64853;53.200;6.080;2022-11-11T05:54:21;1.02;;;0.63;;
76121;SDS011;64853;53.200;6.080;2022-11-11T05:56:49;1.30;;;0.80;;
76121;SDS011;64853;53.200;6.080;2022-11-11T05:59:15;0.75;;;0.70;;
76121;SDS011;64853;53.200;6.080;2022-11-11T06:01:42;1.23;;;0.65;;
76121;SDS011;64853;53.200;6.080;2022-11-11T06:04:09;1.65;;;0.70;;
76121;SDS011;64853;53.200;6.080;2022-11-11T06:06:35;1.63;;;0.90;;
76121;SDS011;64853;53.200;6.080;2022-11-11T06:09:02;1.90;;;1.20;;
76121;SDS011;64853;53.200;6.080;2022-11-11T06:11:30;1.85;;;0.70;;
76121;SDS011;64853;53.200;6.080;2022-11-11T06:13:58;1.10;;;0.70;;
76121;SDS011;64853;53.200;6.080;2022-11-11T06:16:25;1.20;;;0.60;;
76121;SDS011;64853;53.200;6.080;2022-11-11T06:18:51;1.08;;;0.68;;
76121;SDS011;64853;53.200;6.080;2022-11-11T06:21:17;1.63;;;0.90;;
76121;SDS011;64853;53.200;6.080;2022-11-11T06:23:44;1.58;;;0.90;;
76121;SDS011;64853;53.200;6.080;2022-11-11T06:26:11;1.40;;;0.73;;
76121;SDS011;64853;53.200;6.080;2022-11-11T06:28:37;1.05;;;0.80;;
76121;SDS011;64853;53.200;6.080;2022-11-11T06:31:05;1.33;;;0.50;;
76121;SDS011;64853;53.200;6.080;2022-11-11T06:33:32;0.80;;;0.80;;
76121;SDS011;64853;53.200;6.080;2022-11-11T06:35:59;0.80;;;0.60;;
76121;SDS011;64853;53.200;6.080;2022-11-11T06:38:26;1.05;;;0.80;;
76121;SDS011;64853;53.200;6.080;2022-11-11T06:40:52;1.67;;;0.82;;
76121;SDS011;64853;53.200;6.080;2022-11-11T06:43:19;1.15;;;0.93;;
76121;SDS011;64853;53.200;6.080;2022-11-11T06:45:48;1.20;;;0.75;;
76121;SDS011;64853;53.200;6.080;2022-11-11T06:48:17;1.23;;;0.60;;
76121;SDS011;64853;53.200;6.080;2022-11-11T06:50:43;1.52;;;1.13;;
76121;SDS011;64853;53.200;6.080;2022-11-11T06:53:10;0.77;;;0.77;;
76121;SDS011;64853;53.200;6.080;2022-11-11T06:55:38;1.27;;;0.80;;
76121;SDS011;64853;53.200;6.080;2022-11-11T06:58:05;3.38;;;1.00;;
76121;SDS011;64853;53.200;6.080;2022-11-11T07:00:32;3.15;;;1.15;;
76121;SDS011;64853;53.200;6.080;2022-11-11T07:03:00;1.98;;;0.90;;
76121;SDS011;64853;53.200;6.080;2022-11-11T07:05:28;2.75;;;1.08;;
76121;SDS011;64853;53.200;6.080;2022-11-11T07:07:55;1.83;;;1.00;;
76121;SDS011;64853;53.200;6.080;2022-11-11T07:10:21;1.08;;;0.80;;
76121;SDS011;64853;53.200;6.080;2022-11-11T07:12:48;4.25;;;1.63;;
76121;SDS011;64853;53.200;6.080;2022-11-11T07:15:15;1.83;;;1.08;;
76121;SDS011;64853;53.200;6.080;2022-11-11T07:17:41;2.45;;;1.30;;
76121;SDS011;64853;53.200;6.080;2022-11-11T07:20:08;2.55;;;1.30;;
76121;SDS011;64853;53.200;6.080;2022-11-11T07:22:37;3.97;;;1.40;;
76121;SDS011;64853;53.200;6.080;2022-11-11T07:25:03;2.15;;;1.50;;
76121;SDS011;64853;53.200;6.080;2022-11-11T07:27:31;1.95;;;1.38;;
76121;SDS011;64853;53.200;6.080;2022-11-11T07:29:57;1.77;;;0.90;;
76121;SDS011;64853;53.200;6.080;2022-11-11T07:32:24;2.72;;;1.33;;
76121;SDS011;64853;53.200;6.080;2022-11-11T07:34:50;1.83;;;1.27;;
76121;SDS011;64853;53.200;6.080;2022-11-11T07:37:16;2.60;;;1.35;;
76121;SDS011;64853;53.200;6.080;2022-11-11T07:39:45;2.15;;;1.20;;
76121;SDS011;64853;53.200;6.080;2022-11-11T07:42:11;1.52;;;1.10;;
76121;SDS011;64853;53.200;6.080;2022-11-11T07:44:38;3.38;;;1.35;;
76121;SDS011;64853;53.200;6.080;2022-11-11T07:47:04;2.05;;;1.10;;
76121;SDS011;64853;53.200;6.080;2022-11-11T07:49:31;1.90;;;1.25;;
76121;SDS011;64853;53.200;6.080;2022-11-11T07:51:57;1.88;;;1.13;;
76121;SDS011;64853;53.200;6.080;2022-11-11T07:54:24;2.88;;;1.40;;
76121;SDS011;64853;53.200;6.080;2022-11-11T07:56:52;2.30;;;1.20;;
76121;SDS011;64853;53.200;6.080;2022-11-11T07:59:18;1.67;;;1.20;;
76121;SDS011;64853;53.200;6.080;2022-11-11T08:01:44;2.47;;;1.17;;
76121;SDS011;64853;53.200;6.080;2022-11-11T08:04:11;2.58;;;1.35;;
76121;SDS011;64853;53.200;6.080;2022-11-11T08:06:37;1.52;;;1.30;;
76121;SDS011;64853;53.200;6.080;2022-11-11T08:09:04;2.25;;;1.50;;
76121;SDS011;64853;53.200;6.080;2022-11-11T08:11:30;1.95;;;1.30;;
76121;SDS011;64853;53.200;6.080;2022-11-11T08:14:15;1.45;;;1.35;;
76121;SDS011;64853;53.200;6.080;2022-11-11T08:16:42;2.38;;;1.27;;
76121;SDS011;64853;53.200;6.080;2022-11-11T08:19:08;2.63;;;1.35;;
76121;SDS011;64853;53.200;6.080;2022-11-11T08:21:35;1.88;;;1.13;;
76121;SDS011;64853;53.200;6.080;2022-11-11T08:24:01;2.03;;;1.20;;
76121;SDS011;64853;53.200;6.080;2022-11-11T08:26:27;4.07;;;1.40;;
76121;SDS011;64853;53.200;6.080;2022-11-11T08:28:54;2.60;;;1.67;;
76121;SDS011;64853;53.200;6.080;2022-11-11T08:31:22;2.00;;;1.50;;
76121;SDS011;64853;53.200;6.080;2022-11-11T08:33:48;3.47;;;1.38;;
76121;SDS011;64853;53.200;6.080;2022-11-11T08:36:14;1.95;;;1.40;;
76121;SDS011;64853;53.200;6.080;2022-11-11T08:38:41;6.72;;;4.05;;
76121;SDS011;64853;53.200;6.080;2022-11-11T08:41:07;2.67;;;1.20;;
76121;SDS011;64853;53.200;6.080;2022-11-11T08:43:35;1.65;;;1.10;;
76121;SDS011;64853;53.200;6.080;2022-11-11T08:46:02;1.50;;;1.33;;
76121;SDS011;64853;53.200;6.080;2022-11-11T08:48:31;1.48;;;1.13;;
76121;SDS011;64853;53.200;6.080;2022-11-11T08:50:58;1.55;;;1.30;;
76121;SDS011;64853;53.200;6.080;2022-11-11T08:53:25;1.70;;;1.23;;
76121;SDS011;64853;53.200;6.080;2022-11-11T08:55:52;2.75;;;1.15;;
76121;SDS011;64853;53.200;6.080;2022-11-11T08:58:18;2.80;;;1.30;;
76121;SDS011;64853;53.200;6.080;2022-11-11T09:00:45;1.75;;;1.30;;
76121;SDS011;64853;53.200;6.080;2022-11-11T09:03:12;2.28;;;1.40;;
76121;SDS011;64853;53.200;6.080;2022-11-11T09:05:39;2.67;;;1.70;;
76121;SDS011;64853;53.200;6.080;2022-11-11T09:08:06;2.97;;;1.60;;
76121;SDS011;64853;53.200;6.080;2022-11-11T09:10:33;2.80;;;1.88;;
76121;SDS011;64853;53.200;6.080;2022-11-11T09:13:01;2.85;;;1.80;;
76121;SDS011;64853;53.200;6.080;2022-11-11T09:15:28;2.40;;;1.65;;
76121;SDS011;64853;53.200;6.080;2022-11-11T09:17:55;2.13;;;1.67;;
76121;SDS011;64853;53.200;6.080;2022-11-11T09:20:22;2.85;;;1.60;;
76121;SDS011;64853;53.200;6.080;2022-11-11T09:22:50;2.28;;;1.70;;
76121;SDS011;64853;53.200;6.080;2022-11-11T09:25:18;2.33;;;1.83;;
76121;SDS011;64853;53.200;6.080;2022-11-11T09:27:52;2.08;;;1.63;;
76121;SDS011;64853;53.200;6.080;2022-11-11T09:30:20;4.03;;;1.67;;
76121;SDS011;64853;53.200;6.080;2022-11-11T09:32:46;2.50;;;1.92;;
76121;SDS011;64853;53.200;6.080;2022-11-11T09:35:13;1.55;;;1.25;;
76121;SDS011;64853;53.200;6.080;2022-11-11T09:37:39;1.88;;;1.70;;
76121;SDS011;64853;53.200;6.080;2022-11-11T09:40:08;2.70;;;1.80;;
76121;SDS011;64853;53.200;6.080;2022-11-11T09:42:43;2.20;;;1.55;;
76121;SDS011;64853;53.200;6.080;2022-11-11T09:45:20;3.58;;;1.50;;
76121;SDS011;64853;53.200;6.080;2022-11-11T09:47:53;2.55;;;1.80;;
76121;SDS011;64853;53.200;6.080;2022-11-11T09:50:29;3.55;;;2.20;;
76121;SDS011;64853;53.200;6.080;2022-11-11T09:52:59;3.65;;;1.80;;
76121;SDS011;64853;53.200;6.080;2022-11-11T09:58:05;3.08;;;1.85;;
76121;SDS011;64853;53.200;6.080;2022-11-11T10:00:40;3.63;;;1.65;;
76121;SDS011;64853;53.200;6.080;2022-11-11T10:03:10;4.25;;;1.70;;
76121;SDS011;64853;53.200;6.080;2022-11-11T10:05:43;2.50;;;1.80;;
76121;SDS011;64853;53.200;6.080;2022-11-11T10:08:14;3.55;;;1.95;;
76121;SDS011;64853;53.200;6.080;2022-11-11T10:10:44;4.25;;;1.88;;
76121;SDS011;64853;53.200;6.080;2022-11-11T10:13:12;3.58;;;1.90;;
76121;SDS011;64853;53.200;6.080;2022-11-11T10:15:45;2.42;;;1.70;;
76121;SDS011;64853;53.200;6.080;2022-11-11T10:18:24;1.92;;;1.60;;
76121;SDS011;64853;53.200;6.080;2022-11-11T10:21:01;2.35;;;1.83;;
76121;SDS011;64853;53.200;6.080;2022-11-11T10:23:35;3.28;;;1.83;;
76121;SDS011;64853;53.200;6.080;2022-11-11T10:26:04;2.90;;;2.40;;
76121;SDS011;64853;53.200;6.080;2022-11-11T10:28:37;4.65;;;2.47;;
76121;SDS011;64853;53.200;6.080;2022-11-11T10:31:10;2.05;;;1.70;;
76121;SDS011;64853;53.200;6.080;2022-11-11T10:33:42;3.33;;;2.08;;
76121;SDS011;64853;53.200;6.080;2022-11-11T10:36:13;2.60;;;2.40;;
76121;SDS011;64853;53.200;6.080;2022-11-11T10:38:45;3.38;;;2.00;;
76121;SDS011;64853;53.200;6.080;2022-11-11T10:41:18;2.88;;;1.95;;
76121;SDS011;64853;53.200;6.080;2022-11-11T10:43:48;2.25;;;2.05;;
76121;SDS011;64853;53.200;6.080;2022-11-11T10:46:15;3.00;;;2.30;;
76121;SDS011;64853;53.200;6.080;2022-11-11T10:48:49;3.95;;;2.75;;
76121;SDS011;64853;53.200;6.080;2022-11-11T10:51:20;3.35;;;2.40;;
76121;SDS011;64853;53.200;6.080;2022-11-11T10:53:50;2.50;;;1.92;;
76121;SDS011;64853;53.200;6.080;2022-11-11T10:58:56;2.45;;;2.00;;
76121;SDS011;64853;53.200;6.080;2022-11-11T11:01:27;2.58;;;2.38;;
76121;SDS011;64853;53.200;6.080;2022-11-11T11:03:57;2.15;;;1.90;;
76121;SDS011;64853;53.200;6.080;2022-11-11T11:06:29;3.20;;;2.00;;
76121;SDS011;64853;53.200;6.080;2022-11-11T11:09:00;2.55;;;2.05;;
76121;SDS011;64853;53.200;6.080;2022-11-11T11:11:35;2.55;;;2.20;;
76121;SDS011;64853;53.200;6.080;2022-11-11T11:14:07;3.42;;;2.65;;
76121;SDS011;64853;53.200;6.080;2022-11-11T11:16:38;5.35;;;3.40;;
76121;SDS011;64853;53.200;6.080;2022-11-11T11:19:13;4.78;;;3.40;;
76121;SDS011;64853;53.200;6.080;2022-11-11T11:21:47;4.97;;;3.58;;
76121;SDS011;64853;53.200;6.080;2022-11-11T11:24:19;5.80;;;3.92;;
76121;SDS011;64853;53.200;6.080;2022-11-11T11:26:49;5.80;;;3.75;;
76121;SDS011;64853;53.200;6.080;2022-11-11T11:31:54;3.78;;;3.08;;
76121;SDS011;64853;53.200;6.080;2022-11-11T11:34:21;3.55;;;2.67;;
76121;SDS011;64853;53.200;6.080;2022-11-11T11:37:08;4.13;;;2.97;;
76121;SDS011;64853;53.200;6.080;2022-11-11T11:39:35;4.72;;;3.00;;
76121;SDS011;64853;53.200;6.080;2022-11-11T11:42:03;3.40;;;2.90;;
76121;SDS011;64853;53.200;6.080;2022-11-11T11:44:31;3.28;;;2.80;;
76121;SDS011;64853;53.200;6.080;2022-11-11T11:47:07;3.72;;;2.55;;
76121;SDS011;64853;53.200;6.080;2022-11-11T11:49:55;2.88;;;2.28;;
76121;SDS011;64853;53.200;6.080;2022-11-11T11:52:43;3.30;;;2.60;;
76121;SDS011;64853;53.200;6.080;2022-11-11T11:55:21;3.58;;;2.78;;
76121;SDS011;64853;53.200;6.080;2022-11-11T11:57:55;3.78;;;2.58;;
76121;SDS011;64853;53.200;6.080;2022-11-11T12:00:37;3.30;;;2.20;;
76121;SDS011;64853;53.200;6.080;2022-11-11T12:03:16;2.97;;;2.55;;
76121;SDS011;64853;53.200;6.080;2022-11-11T12:06:07;4.13;;;2.42;;
76121;SDS011;64853;53.200;6.080;2022-11-11T12:08:44;2.70;;;2.45;;
76121;SDS011;64853;53.200;6.080;2022-11-11T12:11:23;4.38;;;3.00;;
76121;SDS011;64853;53.200;6.080;2022-11-11T12:14:05;3.00;;;2.47;;
76121;SDS011;64853;53.200;6.080;2022-11-11T12:16:49;2.97;;;2.60;;
76121;SDS011;64853;53.200;6.080;2022-11-11T12:21:58;3.40;;;2.13;;
76121;SDS011;64853;53.200;6.080;2022-11-11T12:24:37;2.92;;;2.67;;
76121;SDS011;64853;53.200;6.080;2022-11-11T12:27:15;3.67;;;2.40;;
76121;SDS011;64853;53.200;6.080;2022-11-11T12:29:58;4.57;;;2.20;;
76121;SDS011;64853;53.200;6.080;2022-11-11T12:32:39;3.33;;;2.67;;
76121;SDS011;64853;53.200;6.080;2022-11-11T12:35:25;3.05;;;2.40;;
76121;SDS011;64853;53.200;6.080;2022-11-11T12:38:10;3.10;;;2.78;;
76121;SDS011;64853;53.200;6.080;2022-11-11T12:40:47;3.42;;;2.25;;
76121;SDS011;64853;53.200;6.080;2022-11-11T12:43:24;2.95;;;2.30;;
76121;SDS011;64853;53.200;6.080;2022-11-11T12:45:58;2.60;;;2.35;;
76121;SDS011;64853;53.200;6.080;2022-11-11T12:48:33;3.22;;;2.70;;
76121;SDS011;64853;53.200;6.080;2022-11-11T12:51:15;3.00;;;2.30;;
76121;SDS011;64853;53.200;6.080;2022-11-11T12:53:51;3.17;;;2.15;;
76121;SDS011;64853;53.200;6.080;2022-11-11T12:56:28;2.88;;;2.25;;
76121;SDS011;64853;53.200;6.080;2022-11-11T12:59:04;2.33;;;2.10;;
76121;SDS011;64853;53.200;6.080;2022-11-11T13:01:47;3.05;;;2.40;;
76121;SDS011;64853;53.200;6.080;2022-11-11T13:04:28;4.35;;;2.20;;
76121;SDS011;64853;53.200;6.080;2022-11-11T13:07:05;2.35;;;2.05;;
76121;SDS011;64853;53.200;6.080;2022-11-11T13:09:54;2.28;;;2.08;;
76121;SDS011;64853;53.200;6.080;2022-11-11T13:12:34;2.40;;;2.05;;
76121;SDS011;64853;53.200;6.080;2022-11-11T13:15:10;4.03;;;2.13;;
76121;SDS011;64853;53.200;6.080;2022-11-11T13:17:41;2.17;;;1.80;;
76121;SDS011;64853;53.200;6.080;2022-11-11T13:20:12;3.28;;;2.10;;
76121;SDS011;64853;53.200;6.080;2022-11-11T13:22:45;4.45;;;2.40;;
76121;SDS011;64853;53.200;6.080;2022-11-11T13:25:15;3.15;;;2.20;;
76121;SDS011;64853;53.200;6.080;2022-11-11T13:27:46;1.95;;;1.75;;
76121;SDS011;64853;53.200;6.080;2022-11-11T13:33:13;2.88;;;2.25;;
76121;SDS011;64853;53.200;6.080;2022-11-11T13:35:43;4.07;;;2.20;;
76121;SDS011;64853;53.200;6.080;2022-11-11T13:38:21;3.05;;;2.30;;
76121;SDS011;64853;53.200;6.080;2022-11-11T13:40:52;2.90;;;1.90;;
76121;SDS011;64853;53.200;6.080;2022-11-11T13:43:23;2.55;;;2.13;;
76121;SDS011;64853;53.200;6.080;2022-11-11T13:45:55;2.90;;;2.22;;
76121;SDS011;64853;53.200;6.080;2022-11-11T13:48:27;2.50;;;2.30;;
76121;SDS011;64853;53.200;6.080;2022-11-11T13:56:21;2.40;;;2.20;;
76121;SDS011;64853;53.200;6.080;2022-11-11T13:58:50;2.72;;;2.13;;
76121;SDS011;64853;53.200;6.080;2022-11-11T14:01:18;3.15;;;2.30;;
76121;SDS011;64853;53.200;6.080;2022-11-11T14:03:59;2.97;;;2.13;;
76121;SDS011;64853;53.200;6.080;2022-11-11T14:12:20;2.72;;;2.20;;
76121;SDS011;64853;53.200;6.080;2022-11-11T14:15:31;2.28;;;2.05;;
76121;SDS011;64853;53.200;6.080;2022-11-11T14:18:08;2.00;;;1.65;;
76121;SDS011;64853;53.200;6.080;2022-11-11T14:20:56;2.25;;;1.95;;
76121;SDS011;64853;53.200;6.080;2022-11-11T14:23:24;2.33;;;1.70;;
76121;SDS011;64853;53.200;6.080;2022-11-11T14:29:03;2.17;;;1.98;;
76121;SDS011;64853;53.200;6.080;2022-11-11T14:31:51;2.63;;;1.70;;
76121;SDS011;64853;53.200;6.080;2022-11-11T14:37:32;3.30;;;2.20;;
76121;SDS011;64853;53.200;6.080;2022-11-11T14:40:22;2.33;;;1.88;;
76121;SDS011;64853;53.200;6.080;2022-11-11T14:42:50;3.30;;;2.33;;
76121;SDS011;64853;53.200;6.080;2022-11-11T14:54:31;3.17;;;2.17;;
76121;SDS011;64853;53.200;6.080;2022-11-11T14:57:09;2.60;;;1.98;;
76121;SDS011;64853;53.200;6.080;2022-11-11T14:59:46;2.67;;;1.77;;
76121;SDS011;64853;53.200;6.080;2022-11-11T15:02:24;2.90;;;1.83;;
76121;SDS011;64853;53.200;6.080;2022-11-11T15:04:56;1.88;;;1.65;;
76121;SDS011;64853;53.200;6.080;2022-11-11T15:07:35;2.97;;;2.10;;
76121;SDS011;64853;53.200;6.080;2022-11-11T15:10:27;2.13;;;1.70;;
76121;SDS011;64853;53.200;6.080;2022-11-11T15:13:07;1.98;;;1.70;;
76121;SDS011;64853;53.200;6.080;2022-11-11T15:16:00;1.70;;;1.60;;
76121;SDS011;64853;53.200;6.080;2022-11-11T15:18:43;2.00;;;1.80;;
76121;SDS011;64853;53.200;6.080;2022-11-11T15:23:56;2.22;;;1.50;;
76121;SDS011;64853;53.200;6.080;2022-11-11T15:26:35;2.90;;;2.20;;
76121;SDS011;64853;53.200;6.080;2022-11-11T15:29:16;2.58;;;1.98;;
76121;SDS011;64853;53.200;6.080;2022-11-11T15:32:02;2.80;;;2.00;;
76121;SDS011;64853;53.200;6.080;2022-11-11T15:34:38;2.53;;;2.00;;
76121;SDS011;64853;53.200;6.080;2022-11-11T15:37:10;1.90;;;1.63;;
76121;SDS011;64853;53.200;6.080;2022-11-11T15:39:39;2.00;;;1.80;;
76121;SDS011;64853;53.200;6.080;2022-11-11T15:42:11;2.03;;;1.83;;
76121;SDS011;64853;53.200;6.080;2022-11-11T15:44:54;2.33;;;1.77;;
76121;SDS011;64853;53.200;6.080;2022-11-11T15:47:21;2.95;;;2.15;;
76121;SDS011;64853;53.200;6.080;2022-11-11T15:49:49;2.92;;;2.10;;
76121;SDS011;64853;53.200;6.080;2022-11-11T15:52:26;2.22;;;1.65;;
76121;SDS011;64853;53.200;6.080;2022-11-11T15:54:54;2.47;;;1.80;;
76121;SDS011;64853;53.200;6.080;2022-11-11T15:57:26;2.45;;;2.25;;
76121;SDS011;64853;53.200;6.080;2022-11-11T15:59:55;2.05;;;1.75;;